createdAt,value
2023-02-22T00:00:19.278Z,41.00
2023-02-22T00:02:47.107Z,40.90
2023-02-22T00:05:17.561Z,41.00
2023-02-22T00:07:45.742Z,41.00
2023-02-22T00:10:14.487Z,40.90
2023-02-22T00:12:42.249Z,41.00
2023-02-22T00:15:09.995Z,41.00
2023-02-22T00:17:37.846Z,41.00
2023-02-22T00:20:07.302Z,40.90
2023-02-22T00:22:35.114Z,40.90
2023-02-22T00:25:02.867Z,40.90
2023-02-22T00:27:30.838Z,40.90
2023-02-22T00:29:58.921Z,41.00
2023-02-22T00:32:26.796Z,41.00
2023-02-22T00:34:54.760Z,41.00
2023-02-22T00:37:22.492Z,41.00
2023-02-22T00:39:50.374Z,41.00
2023-02-22T00:42:18.159Z,41.10
2023-02-22T00:44:46.071Z,41.00
2023-02-22T00:47:13.940Z,41.00
2023-02-22T00:49:41.811Z,41.10
2023-02-22T00:52:10.245Z,41.10
2023-02-22T00:54:38.068Z,41.10
2023-02-22T00:57:05.839Z,41.00
2023-02-22T00:59:33.636Z,41.20
2023-02-22T01:02:01.563Z,41.00
2023-02-22T01:04:29.780Z,41.10
2023-02-22T01:06:58.747Z,41.10
2023-02-22T01:09:26.987Z,41.20
2023-02-22T01:11:56.447Z,41.20
2023-02-22T01:14:24.213Z,41.20
2023-02-22T01:16:52.101Z,41.20
2023-02-22T01:19:19.881Z,41.20
2023-02-22T01:21:48.318Z,41.20
2023-02-22T01:24:16.497Z,41.20
2023-02-22T01:26:45.497Z,41.20
2023-02-22T01:29:15.198Z,41.20
2023-02-22T01:31:44.170Z,41.20
2023-02-22T01:34:12.967Z,41.20
2023-02-22T01:36:41.337Z,41.20
2023-02-22T01:39:10.591Z,41.20
2023-02-22T01:41:39.055Z,41.30
2023-02-22T01:44:06.889Z,41.30
2023-02-22T01:46:34.769Z,41.40
2023-02-22T01:49:02.490Z,41.30
2023-02-22T01:51:30.260Z,41.20
2023-02-22T01:53:58.036Z,41.20
2023-02-22T01:56:25.884Z,41.30
2023-02-22T01:58:53.743Z,41.20
2023-02-22T02:01:21.538Z,41.30
2023-02-22T02:03:50.316Z,41.20
2023-02-22T02:06:18.174Z,41.30
2023-02-22T02:08:49.861Z,41.30
2023-02-22T02:11:17.870Z,41.40
2023-02-22T02:13:45.849Z,41.40
2023-02-22T02:16:14.732Z,41.30
2023-02-22T02:18:45.266Z,41.30
2023-02-22T02:21:13.115Z,41.30
2023-02-22T02:23:41.318Z,41.40
2023-02-22T02:26:09.198Z,41.40
2023-02-22T02:28:37.178Z,41.30
2023-02-22T02:31:04.975Z,41.30
2023-02-22T02:33:32.723Z,41.40
2023-02-22T02:36:00.484Z,41.30
2023-02-22T02:38:28.230Z,41.30
2023-02-22T02:40:56.213Z,41.30
2023-02-22T02:43:23.957Z,41.40
2023-02-22T02:45:51.716Z,41.40
2023-02-22T02:48:19.570Z,41.40
2023-02-22T02:50:47.311Z,41.40
2023-02-22T02:53:17.170Z,41.40
2023-02-22T02:55:45.033Z,41.30
2023-02-22T02:58:12.979Z,41.40
2023-02-22T03:00:40.787Z,41.40
2023-02-22T03:03:08.642Z,41.50
2023-02-22T03:05:36.381Z,41.30
2023-02-22T03:08:04.267Z,41.40
2023-02-22T03:10:32.078Z,41.40
2023-02-22T03:12:59.951Z,41.40
2023-02-22T03:15:27.741Z,41.40
2023-02-22T03:17:55.567Z,41.40
2023-02-22T03:20:23.358Z,41.50
2023-02-22T03:22:51.281Z,41.50
2023-02-22T03:25:19.039Z,41.50
2023-02-22T03:27:46.837Z,41.60
2023-02-22T03:30:14.704Z,41.50
2023-02-22T03:32:42.616Z,41.50
2023-02-22T03:35:10.366Z,41.60
2023-02-22T03:37:38.245Z,41.50
2023-02-22T03:40:14.063Z,41.50
2023-02-22T03:42:41.929Z,41.50
2023-02-22T03:45:10.173Z,41.50
2023-02-22T03:47:38.089Z,41.60
2023-02-22T03:50:06.990Z,41.60
2023-02-22T03:52:35.533Z,41.60
2023-02-22T03:55:03.478Z,41.60
2023-02-22T03:57:31.460Z,41.60
2023-02-22T03:59:59.211Z,41.60
2023-02-22T04:02:27.158Z,41.70
2023-02-22T04:04:54.950Z,41.70
2023-02-22T04:07:22.709Z,41.70
2023-02-22T04:09:50.464Z,41.70
2023-02-22T04:12:18.282Z,41.70
2023-02-22T04:14:46.066Z,41.70
2023-02-22T04:17:13.834Z,41.70
2023-02-22T04:19:41.665Z,41.70
2023-02-22T04:22:09.544Z,41.80
2023-02-22T04:24:37.299Z,41.70
2023-02-22T04:27:05.615Z,41.80
2023-02-22T04:29:33.389Z,41.80
2023-02-22T04:32:01.123Z,41.90
2023-02-22T04:34:28.936Z,41.80
2023-02-22T04:36:56.762Z,41.80
2023-02-22T04:39:24.558Z,41.80
2023-02-22T04:41:52.396Z,41.70
2023-02-22T04:44:20.210Z,41.80
2023-02-22T04:46:48.077Z,41.80
2023-02-22T04:49:15.860Z,41.90
2023-02-22T04:51:43.729Z,41.80
2023-02-22T04:54:12.943Z,41.80
2023-02-22T04:56:40.767Z,41.80
2023-02-22T04:59:08.588Z,41.90
2023-02-22T05:01:36.422Z,41.90
2023-02-22T05:04:04.261Z,41.80
2023-02-22T05:06:32.062Z,41.90
2023-02-22T05:08:59.950Z,41.90
2023-02-22T05:11:27.791Z,41.90
2023-02-22T05:13:55.579Z,41.90
2023-02-22T05:16:23.420Z,41.90
2023-02-22T05:18:51.248Z,41.90
2023-02-22T05:21:19.398Z,41.90
2023-02-22T05:23:47.209Z,41.90
2023-02-22T05:26:16.251Z,41.90
2023-02-22T05:28:44.006Z,41.90
2023-02-22T05:31:11.798Z,41.90
2023-02-22T05:33:40.648Z,41.90
2023-02-22T05:36:08.536Z,41.90
2023-02-22T05:38:36.285Z,41.90
2023-02-22T05:41:04.429Z,42.00
2023-02-22T05:43:32.239Z,42.00
2023-02-22T05:46:00.040Z,42.00
2023-02-22T05:48:27.786Z,42.00
2023-02-22T05:50:56.182Z,42.00
2023-02-22T05:53:24.033Z,42.00
2023-02-22T05:55:51.865Z,42.00
2023-02-22T05:58:19.615Z,42.00
2023-02-22T06:00:47.407Z,42.10
2023-02-22T06:03:15.162Z,42.10
2023-02-22T06:05:43.051Z,42.10
2023-02-22T06:08:10.829Z,42.20
2023-02-22T06:10:38.606Z,42.10
2023-02-22T06:13:06.421Z,42.30
2023-02-22T06:15:34.188Z,42.20
2023-02-22T06:18:02.004Z,42.30
2023-02-22T06:20:29.803Z,42.20
2023-02-22T06:22:57.758Z,42.20
2023-02-22T06:25:25.916Z,42.30
2023-02-22T06:27:53.730Z,42.20
2023-02-22T06:30:21.580Z,42.30
2023-02-22T06:32:49.399Z,42.30
2023-02-22T06:35:17.139Z,42.40
2023-02-22T06:37:44.944Z,42.30
2023-02-22T06:40:12.702Z,42.30
2023-02-22T06:42:40.525Z,42.20
2023-02-22T06:45:08.389Z,42.30
2023-02-22T06:47:36.241Z,42.40
2023-02-22T06:50:04.093Z,42.30
2023-02-22T06:52:31.945Z,42.40
2023-02-22T06:54:59.710Z,42.30
2023-02-22T06:57:27.492Z,42.50
2023-02-22T06:59:55.553Z,42.40
2023-02-22T07:02:23.417Z,42.40
2023-02-22T07:04:51.414Z,42.40
2023-02-22T07:07:19.150Z,42.30
2023-02-22T07:09:46.898Z,42.40
2023-02-22T07:12:14.731Z,42.40
2023-02-22T07:14:42.491Z,42.30
2023-02-22T07:17:11.597Z,42.40
2023-02-22T07:19:39.420Z,42.40
2023-02-22T07:22:07.164Z,42.40
2023-02-22T07:24:35.248Z,42.30
2023-02-22T07:27:03.138Z,42.40
2023-02-22T07:29:31.476Z,42.30
2023-02-22T07:31:59.378Z,43.10
2023-02-22T07:34:27.163Z,42.40
2023-02-22T07:36:54.987Z,42.40
2023-02-22T07:39:22.897Z,42.30
2023-02-22T07:41:50.951Z,42.50
2023-02-22T07:44:18.706Z,42.40
2023-02-22T07:46:46.486Z,42.40
2023-02-22T07:49:14.247Z,42.40
2023-02-22T07:51:42.082Z,42.30
2023-02-22T07:54:10.978Z,42.40
2023-02-22T07:56:52.100Z,42.40
2023-02-22T07:59:21.865Z,42.30
2023-02-22T08:01:49.906Z,42.40
2023-02-22T08:04:17.686Z,42.40
2023-02-22T08:06:46.342Z,42.30
2023-02-22T08:09:15.505Z,42.40
2023-02-22T08:11:43.231Z,42.30
2023-02-22T08:14:11.281Z,42.30
2023-02-22T08:16:39.069Z,42.40
2023-02-22T08:19:06.941Z,42.30
2023-02-22T08:21:34.709Z,42.30
2023-02-22T08:24:02.534Z,42.20
2023-02-22T08:26:30.326Z,42.40
2023-02-22T08:28:58.136Z,42.30
2023-02-22T08:31:26.097Z,42.40
2023-02-22T08:33:53.863Z,42.30
2023-02-22T08:36:21.737Z,42.30
2023-02-22T08:38:49.463Z,42.40
2023-02-22T08:41:17.519Z,42.30
2023-02-22T08:43:45.455Z,42.40
2023-02-22T08:46:13.232Z,42.50
2023-02-22T08:48:40.967Z,42.50
2023-02-22T08:51:09.704Z,42.20
2023-02-22T08:53:37.885Z,42.40
2023-02-22T08:56:05.629Z,42.40
2023-02-22T08:58:33.380Z,42.40
2023-02-22T09:01:01.076Z,42.70
2023-02-22T09:03:29.173Z,42.50
2023-02-22T09:05:56.982Z,42.40
2023-02-22T09:08:24.736Z,42.40
2023-02-22T09:10:52.466Z,42.40
2023-02-22T09:13:20.181Z,42.30
2023-02-22T09:15:47.933Z,42.50
2023-02-22T09:18:18.085Z,42.80
2023-02-22T09:20:45.886Z,42.50
2023-02-22T09:23:14.529Z,42.40
2023-02-22T09:25:42.341Z,42.50
2023-02-22T09:28:10.358Z,42.40
2023-02-22T09:30:38.251Z,42.50
2023-02-22T09:33:06.675Z,42.50
2023-02-22T09:35:37.706Z,42.50
2023-02-22T09:38:06.358Z,42.50
2023-02-22T09:40:34.152Z,42.50
2023-02-22T09:43:02.026Z,42.50
2023-02-22T09:45:30.375Z,42.50
2023-02-22T09:48:01.297Z,42.50
2023-02-22T09:50:35.648Z,42.50
2023-02-22T09:53:04.363Z,42.50
2023-02-22T09:55:34.175Z,42.60
2023-02-22T09:58:01.978Z,42.60
2023-02-22T10:00:32.563Z,42.60
2023-02-22T10:03:00.909Z,42.50
2023-02-22T10:05:28.827Z,42.50
2023-02-22T10:07:56.640Z,42.60
2023-02-22T10:10:24.570Z,42.60
2023-02-22T10:12:53.346Z,42.60
2023-02-22T10:15:21.415Z,42.60
2023-02-22T10:17:49.222Z,42.60
2023-02-22T10:20:17.019Z,42.60
2023-02-22T10:22:44.802Z,42.60
2023-02-22T10:25:13.228Z,42.50
2023-02-22T10:27:41.023Z,42.50
2023-02-22T10:30:23.394Z,42.60
2023-02-22T10:32:52.174Z,42.60
2023-02-22T10:35:19.994Z,42.50
2023-02-22T10:37:48.315Z,42.60
2023-02-22T10:40:17.388Z,42.70
2023-02-22T10:42:45.245Z,42.60
2023-02-22T10:45:13.043Z,42.60
2023-02-22T10:47:40.970Z,42.60
2023-02-22T10:50:08.748Z,42.70
2023-02-22T10:52:36.709Z,42.70
2023-02-22T10:55:15.362Z,42.60
2023-02-22T10:57:44.071Z,42.60
2023-02-22T11:00:14.004Z,42.60
2023-02-22T11:02:41.831Z,42.70
2023-02-22T11:05:09.704Z,42.60
2023-02-22T11:07:37.495Z,42.60
2023-02-22T11:10:05.380Z,42.60
2023-02-22T11:12:33.278Z,42.70
2023-02-22T11:15:01.114Z,42.70
2023-02-22T11:17:28.928Z,42.60
2023-02-22T11:19:56.748Z,42.60
2023-02-22T11:22:24.875Z,42.60
2023-02-22T11:27:20.888Z,42.70
2023-02-22T11:29:50.942Z,42.60
2023-02-22T11:32:21.349Z,42.60
2023-02-22T11:34:52.826Z,42.70
2023-02-22T11:37:22.994Z,42.70
2023-02-22T11:39:51.406Z,42.80
2023-02-22T11:42:19.207Z,42.80
2023-02-22T11:44:47.100Z,42.60
2023-02-22T11:47:15.190Z,42.70
2023-02-22T11:49:43.012Z,42.80
2023-02-22T11:52:10.844Z,42.80
2023-02-22T11:54:38.649Z,42.80
2023-02-22T11:57:07.233Z,42.80
2023-02-22T11:59:36.646Z,42.70
2023-02-22T12:02:04.405Z,42.80
2023-02-22T12:04:33.188Z,43.10
2023-02-22T12:07:01.095Z,42.80
2023-02-22T12:09:28.894Z,42.80
2023-02-22T12:11:57.344Z,42.80
2023-02-22T12:14:25.318Z,42.80
2023-02-22T12:16:54.607Z,42.80
2023-02-22T12:19:23.153Z,42.80
2023-02-22T12:21:52.079Z,42.80
2023-02-22T12:24:19.887Z,42.90
2023-02-22T12:26:48.471Z,42.90
2023-02-22T12:29:16.238Z,42.80
2023-02-22T12:31:45.558Z,42.80
2023-02-22T12:34:13.528Z,42.80
2023-02-22T12:36:41.931Z,42.80
2023-02-22T12:39:09.683Z,42.80
2023-02-22T12:41:38.410Z,42.80
2023-02-22T12:44:06.201Z,42.90
2023-02-22T12:46:33.991Z,42.90
2023-02-22T12:49:01.928Z,42.90
2023-02-22T12:51:29.719Z,42.90
2023-02-22T12:53:57.515Z,43.00
2023-02-22T12:56:25.330Z,42.90
2023-02-22T12:58:54.334Z,43.00
2023-02-22T13:01:22.245Z,43.00
2023-02-22T13:03:50.378Z,43.00
2023-02-22T13:06:18.209Z,43.00
2023-02-22T13:08:45.976Z,43.00
2023-02-22T13:11:15.013Z,42.90
2023-02-22T13:13:42.921Z,43.00
2023-02-22T13:16:10.784Z,43.10
2023-02-22T13:18:39.218Z,43.00
2023-02-22T13:21:07.050Z,43.10
2023-02-22T13:23:34.898Z,43.10
2023-02-22T13:26:03.782Z,43.10
2023-02-22T13:28:32.169Z,43.10
2023-02-22T13:31:00.050Z,43.00
2023-02-22T13:33:28.294Z,43.00
2023-02-22T13:35:56.103Z,43.00
2023-02-22T13:38:24.337Z,43.10
2023-02-22T13:40:52.187Z,43.10
2023-02-22T13:43:20.011Z,43.10
2023-02-22T13:45:48.415Z,43.10
2023-02-22T13:48:16.349Z,43.00
2023-02-22T13:50:44.154Z,43.10
2023-02-22T13:53:11.943Z,43.20
2023-02-22T13:55:39.942Z,43.00
2023-02-22T13:58:07.739Z,43.10
2023-02-22T14:00:35.555Z,43.20
2023-02-22T14:03:03.440Z,43.10
2023-02-22T14:05:31.514Z,43.20
2023-02-22T14:07:59.299Z,43.20
2023-02-22T14:10:27.100Z,43.20
2023-02-22T14:12:55.124Z,43.20
2023-02-22T14:15:31.255Z,43.20
2023-02-22T14:17:59.186Z,43.20
2023-02-22T14:20:32.100Z,43.20
2023-02-22T14:23:00.070Z,43.20
2023-02-22T14:25:28.414Z,43.20
2023-02-22T14:27:57.925Z,43.20
2023-02-22T14:30:26.280Z,43.20
2023-02-22T14:32:54.261Z,43.20
2023-02-22T14:35:30.092Z,43.20
2023-02-22T14:38:03.785Z,43.30
2023-02-22T14:40:31.589Z,43.30
2023-02-22T14:42:59.474Z,43.40
2023-02-22T14:45:29.258Z,43.40
2023-02-22T14:48:01.294Z,43.20
2023-02-22T14:50:30.113Z,43.30
2023-02-22T14:52:57.967Z,43.30
2023-02-22T14:55:25.687Z,43.30
2023-02-22T14:57:54.840Z,43.30
2023-02-22T15:00:30.616Z,43.30
2023-02-22T15:02:59.145Z,44.00
2023-02-22T15:05:30.073Z,41.30
2023-02-22T15:07:57.873Z,35.10
2023-02-22T15:10:25.983Z,29.50
2023-02-22T15:12:53.744Z,26.60
2023-02-22T15:15:22.149Z,24.90
2023-02-22T15:17:49.968Z,23.80
2023-02-22T15:20:17.781Z,22.90
2023-02-22T15:22:45.715Z,22.30
2023-02-22T15:25:13.526Z,21.70
2023-02-22T15:27:41.546Z,21.30
2023-02-22T15:30:09.388Z,20.70
2023-02-22T15:32:37.211Z,20.30
2023-02-22T15:35:05.065Z,19.90
2023-02-22T15:37:32.816Z,19.50
2023-02-22T15:40:00.596Z,19.10
2023-02-22T15:42:30.519Z,18.90
2023-02-22T15:44:58.291Z,18.60
2023-02-22T15:47:26.160Z,18.90
2023-02-22T15:49:53.917Z,18.30
2023-02-22T15:52:21.663Z,18.30
2023-02-22T15:54:49.426Z,18.50
2023-02-22T15:57:17.300Z,18.80
2023-02-22T15:59:45.423Z,19.30
2023-02-22T16:02:13.353Z,19.80
2023-02-22T16:04:45.905Z,20.40
2023-02-22T16:07:17.954Z,21.00
2023-02-22T16:09:45.779Z,21.60
2023-02-22T16:12:13.829Z,22.20
2023-02-22T16:14:44.976Z,22.90
2023-02-22T16:17:13.119Z,23.60
2023-02-22T16:19:44.908Z,24.20
2023-02-22T16:22:14.154Z,24.90
2023-02-22T16:24:42.409Z,25.50
2023-02-22T16:27:10.329Z,26.70
2023-02-22T16:29:38.344Z,26.70
2023-02-22T16:32:06.201Z,27.20
2023-02-22T16:34:34.759Z,27.80
2023-02-22T16:37:02.547Z,28.30
2023-02-22T16:39:30.270Z,28.80
2023-02-22T16:41:57.985Z,29.20
2023-02-22T16:44:26.993Z,29.70
2023-02-22T16:46:54.679Z,30.10
2023-02-22T16:49:23.125Z,30.60
2023-02-22T16:51:53.403Z,31.20
2023-02-22T16:54:21.156Z,31.70
2023-02-22T16:56:48.891Z,32.20
2023-02-22T16:59:16.610Z,32.60
2023-02-22T17:01:44.298Z,33.00
2023-02-22T17:04:14.471Z,33.40
2023-02-22T17:06:42.182Z,33.90
2023-02-22T17:09:09.878Z,34.10
2023-02-22T17:11:37.579Z,34.40
2023-02-22T17:14:05.304Z,34.00
2023-02-22T17:16:33.008Z,33.20
2023-02-22T17:19:00.753Z,32.00
2023-02-22T17:21:28.465Z,30.60
2023-02-22T17:23:56.182Z,29.10
2023-02-22T17:26:26.186Z,27.50
2023-02-22T17:28:53.914Z,26.30
2023-02-22T17:31:21.762Z,25.50
2023-02-22T17:33:51.471Z,25.10
2023-02-22T17:36:19.387Z,24.90
2023-02-22T17:38:47.296Z,24.90
2023-02-22T17:47:36.590Z,25.60
2023-02-22T17:50:15.465Z,26.10
2023-02-22T17:52:45.545Z,26.50
2023-02-22T17:58:31.161Z,27.40
2023-02-22T18:01:24.956Z,28.00
2023-02-22T18:03:55.262Z,28.40
2023-02-22T18:06:25.221Z,28.90
2023-02-22T18:09:00.538Z,29.30
2023-02-22T18:11:32.544Z,29.70
2023-02-22T18:16:56.268Z,30.50
2023-02-22T18:19:24.011Z,31.10
2023-02-22T18:21:52.473Z,31.60
2023-02-22T18:24:20.356Z,32.00
2023-02-22T18:26:48.356Z,32.40
2023-02-22T18:29:16.134Z,32.90
2023-02-22T18:31:45.434Z,33.30
2023-02-22T18:34:13.564Z,33.70
2023-02-22T18:36:41.471Z,34.10
2023-02-22T18:39:11.774Z,34.50
2023-02-22T18:41:39.596Z,34.60
2023-02-22T18:44:10.422Z,34.90
2023-02-22T18:46:38.257Z,35.20
2023-02-22T18:49:06.074Z,35.30
2023-02-22T18:51:33.982Z,35.70
2023-02-22T18:54:01.795Z,35.70
2023-02-22T18:56:30.858Z,36.00
2023-02-22T18:59:01.761Z,36.20
2023-02-22T19:01:29.546Z,36.20
2023-02-22T19:03:57.465Z,36.50
2023-02-22T19:06:25.293Z,36.70
2023-02-22T19:08:53.544Z,37.00
2023-02-22T19:11:21.994Z,37.20
2023-02-22T19:13:50.325Z,34.40
2023-02-22T19:16:20.054Z,30.00
2023-02-22T19:18:48.659Z,26.90
2023-02-22T19:21:16.681Z,24.50
2023-02-22T19:23:47.641Z,22.90
2023-02-22T19:26:18.539Z,21.90
2023-02-22T19:28:46.665Z,21.30
2023-02-22T19:31:14.641Z,20.80
2023-02-22T19:33:42.498Z,20.50
2023-02-22T19:36:10.379Z,20.50
2023-02-22T19:38:38.173Z,20.60
2023-02-22T19:41:10.091Z,20.90
2023-02-22T19:43:38.256Z,21.30
2023-02-22T19:46:06.139Z,21.80
2023-02-22T19:48:34.009Z,22.40
2023-02-22T19:51:01.797Z,23.00
2023-02-22T19:53:29.541Z,23.60
2023-02-22T19:55:57.488Z,24.10
2023-02-22T19:58:25.327Z,24.70
2023-02-22T20:00:53.179Z,25.20
2023-02-22T20:03:24.622Z,25.80
2023-02-22T20:05:52.476Z,26.30
2023-02-22T20:08:20.857Z,26.80
2023-02-22T20:10:48.627Z,27.40
2023-02-22T20:13:17.132Z,27.70
2023-02-22T20:15:45.135Z,28.30
2023-02-22T20:18:12.984Z,28.80
2023-02-22T20:20:42.036Z,29.20
2023-02-22T20:23:10.369Z,29.60
2023-02-22T20:25:38.158Z,30.00
2023-02-22T20:28:07.728Z,30.50
2023-02-22T20:30:35.525Z,31.00
2023-02-22T20:33:03.542Z,31.50
2023-02-22T20:35:31.904Z,32.00
2023-02-22T20:37:59.854Z,32.50
2023-02-22T20:40:27.625Z,32.90
2023-02-22T20:42:56.316Z,33.30
2023-02-22T20:45:24.106Z,33.70
2023-02-22T20:47:51.914Z,34.10
2023-02-22T20:50:19.658Z,34.40
2023-02-22T20:52:47.455Z,34.60
2023-02-22T20:55:15.321Z,34.90
2023-02-22T20:57:43.129Z,35.20
2023-02-22T21:00:11.050Z,35.40
2023-02-22T21:02:39.470Z,35.50
2023-02-22T21:05:07.270Z,36.50
2023-02-22T21:07:34.990Z,36.00
2023-02-22T21:10:06.093Z,36.20
2023-02-22T21:12:33.901Z,36.40
2023-02-22T21:15:01.677Z,36.50
2023-02-22T21:17:30.833Z,36.80
2023-02-22T21:19:58.572Z,36.90
2023-02-22T21:22:26.404Z,37.10
2023-02-22T21:24:54.392Z,37.30
2023-02-22T21:27:22.178Z,37.40
2023-02-22T21:29:49.910Z,37.60
2023-02-22T21:32:17.986Z,37.80
2023-02-22T21:34:45.796Z,37.90
2023-02-22T21:37:18.050Z,38.00
2023-02-22T21:39:47.531Z,38.10
2023-02-22T21:42:15.453Z,38.20
2023-02-22T21:44:43.262Z,38.30
2023-02-22T21:47:11.001Z,38.40
2023-02-22T21:49:38.910Z,38.50
2023-02-22T21:52:07.797Z,38.60
2023-02-22T21:54:35.551Z,38.70
2023-02-22T21:57:06.216Z,38.80
2023-02-22T21:59:33.989Z,38.90
2023-02-22T22:02:01.818Z,38.90
2023-02-22T22:04:29.615Z,39.00
2023-02-22T22:06:57.804Z,39.10
2023-02-22T22:09:29.040Z,39.20
2023-02-22T22:11:58.398Z,39.30
2023-02-22T22:14:26.225Z,39.40
2023-02-22T22:16:53.937Z,39.50
2023-02-22T22:19:22.848Z,39.60
2023-02-22T22:21:53.558Z,39.60
2023-02-22T22:24:21.395Z,39.80
2023-02-22T22:26:51.223Z,39.80
2023-02-22T22:29:18.999Z,40.00
2023-02-22T22:31:46.882Z,40.00
2023-02-22T22:34:14.672Z,40.00
2023-02-22T22:36:43.393Z,40.10
2023-02-22T22:39:14.031Z,40.20
2023-02-22T22:41:41.853Z,40.30
2023-02-22T22:44:09.913Z,40.30
2023-02-22T22:46:39.711Z,40.20
2023-02-22T22:49:07.918Z,40.30
2023-02-22T22:51:35.975Z,40.30
2023-02-22T22:54:03.705Z,40.40
2023-02-22T22:56:35.140Z,40.30
2023-02-22T22:59:07.460Z,40.40
2023-02-22T23:01:39.139Z,40.40
2023-02-22T23:04:06.863Z,40.50
2023-02-22T23:06:34.637Z,40.40
2023-02-22T23:09:09.184Z,40.40
2023-02-22T23:11:36.972Z,40.50
2023-02-22T23:14:04.750Z,40.40
2023-02-22T23:16:33.324Z,40.50
2023-02-22T23:19:01.204Z,40.50
2023-02-22T23:21:28.979Z,40.50
2023-02-22T23:23:58.208Z,40.50
2023-02-22T23:26:26.825Z,40.50
2023-02-22T23:28:54.682Z,40.50
2023-02-22T23:31:22.686Z,40.50
2023-02-22T23:33:50.660Z,40.60
2023-02-22T23:36:18.457Z,40.50
2023-02-22T23:38:46.404Z,40.60
2023-02-22T23:41:16.620Z,40.60
2023-02-22T23:43:44.634Z,40.60
2023-02-22T23:46:12.393Z,40.50
2023-02-22T23:48:40.340Z,40.60
2023-02-22T23:51:09.193Z,40.50
2023-02-22T23:53:38.151Z,40.60
2023-02-22T23:56:10.010Z,40.60
2023-02-22T23:58:37.991Z,40.70
